sensor_id;sensor_type;location;lat;lon;timestamp;pressure;altitude;pressure_sealevel;temperature;humidity
67803;BME280;54601;51.378;-1.342;2023-01-15T00:01:55;98703.30;;;17.58;32.13
67803;BME280;54601;51.378;-1.342;2023-01-15T00:04:21;98702.27;;;17.52;32.06
67803;BME280;54601;51.378;-1.342;2023-01-15T00:06:46;98701.75;;;17.44;32.10
67803;BME280;54601;51.378;-1.342;2023-01-15T00:09:13;98704.41;;;17.26;32.03
67803;BME280;54601;51.378;-1.342;2023-01-15T00:11:36;98698.18;;;17.51;32.03
67803;BME280;54601;51.378;-1.342;2023-01-15T00:14:02;98697.71;;;17.40;32.01
67803;BME280;54601;51.378;-1.342;2023-01-15T00:16:27;98692.98;;;17.42;32.00
67803;BME280;54601;51.378;-1.342;2023-01-15T00:18:54;98685.98;;;17.32;32.14
67803;BME280;54601;51.378;-1.342;2023-01-15T00:21:18;98677.76;;;17.23;32.29
67803;BME280;54601;51.378;-1.342;2023-01-15T00:23:43;98683.29;;;17.29;32.06
67803;BME280;54601;51.378;-1.342;2023-01-15T00:26:09;98680.08;;;17.32;31.98
67803;BME280;54601;51.378;-1.342;2023-01-15T00:28:33;98686.07;;;17.47;32.07
67803;BME280;54601;51.378;-1.342;2023-01-15T00:30:58;98684.68;;;17.15;32.14
67803;BME280;54601;51.378;-1.342;2023-01-15T00:33:24;98684.57;;;17.27;31.95
67803;BME280;54601;51.378;-1.342;2023-01-15T00:35:49;98677.52;;;17.25;31.87
67803;BME280;54601;51.378;-1.342;2023-01-15T00:38:14;98673.66;;;17.13;32.07
67803;BME280;54601;51.378;-1.342;2023-01-15T00:40:39;98677.82;;;17.18;32.01
67803;BME280;54601;51.378;-1.342;2023-01-15T00:43:05;98675.58;;;17.27;31.82
67803;BME280;54601;51.378;-1.342;2023-01-15T00:45:30;98674.70;;;17.10;32.04
67803;BME280;54601;51.378;-1.342;2023-01-15T00:47:55;98669.95;;;17.07;32.06
67803;BME280;54601;51.378;-1.342;2023-01-15T00:50:20;98667.98;;;17.11;31.90
67803;BME280;54601;51.378;-1.342;2023-01-15T00:52:46;98669.63;;;17.08;31.99
67803;BME280;54601;51.378;-1.342;2023-01-15T00:55:11;98677.62;;;17.06;31.97
67803;BME280;54601;51.378;-1.342;2023-01-15T00:57:37;98676.38;;;17.28;31.88
67803;BME280;54601;51.378;-1.342;2023-01-15T01:00:02;98672.76;;;17.26;31.95
67803;BME280;54601;51.378;-1.342;2023-01-15T01:02:27;98670.46;;;17.11;31.84
67803;BME280;54601;51.378;-1.342;2023-01-15T01:04:52;98657.68;;;17.54;31.80
67803;BME280;54601;51.378;-1.342;2023-01-15T01:07:18;98655.24;;;16.95;31.93
67803;BME280;54601;51.378;-1.342;2023-01-15T01:09:43;98653.22;;;17.14;31.95
67803;BME280;54601;51.378;-1.342;2023-01-15T01:12:08;98656.54;;;17.02;31.83
67803;BME280;54601;51.378;-1.342;2023-01-15T01:14:33;98665.53;;;16.99;31.80
67803;BME280;54601;51.378;-1.342;2023-01-15T01:16:59;98664.26;;;17.02;31.76
67803;BME280;54601;51.378;-1.342;2023-01-15T01:19:25;98664.66;;;17.18;31.86
67803;BME280;54601;51.378;-1.342;2023-01-15T01:21:50;98661.10;;;16.96;31.79
67803;BME280;54601;51.378;-1.342;2023-01-15T01:24:17;98660.96;;;16.92;31.81
67803;BME280;54601;51.378;-1.342;2023-01-15T01:26:40;98658.02;;;16.70;32.06
67803;BME280;54601;51.378;-1.342;2023-01-15T01:29:06;98656.43;;;16.84;31.83
67803;BME280;54601;51.378;-1.342;2023-01-15T01:31:31;98654.04;;;16.95;31.79
67803;BME280;54601;51.378;-1.342;2023-01-15T01:33:57;98652.82;;;17.34;31.74
67803;BME280;54601;51.378;-1.342;2023-01-15T01:36:27;98652.78;;;17.08;31.77
67803;BME280;54601;51.378;-1.342;2023-01-15T01:38:47;98655.50;;;16.79;31.83
67803;BME280;54601;51.378;-1.342;2023-01-15T01:41:12;98653.82;;;17.07;31.70
67803;BME280;54601;51.378;-1.342;2023-01-15T01:46:02;98657.99;;;16.87;31.63
67803;BME280;54601;51.378;-1.342;2023-01-15T01:48:31;98649.89;;;16.78;31.71
67803;BME280;54601;51.378;-1.342;2023-01-15T01:50:54;98658.95;;;16.79;31.68
67803;BME280;54601;51.378;-1.342;2023-01-15T01:53:22;98657.94;;;16.85;31.57
67803;BME280;54601;51.378;-1.342;2023-01-15T01:55:44;98657.54;;;17.38;31.46
67803;BME280;54601;51.378;-1.342;2023-01-15T01:58:10;98661.98;;;16.81;31.53
67803;BME280;54601;51.378;-1.342;2023-01-15T02:00:35;98673.88;;;16.99;31.58
67803;BME280;54601;51.378;-1.342;2023-01-15T02:03:00;98672.46;;;16.97;31.54
67803;BME280;54601;51.378;-1.342;2023-01-15T02:05:30;98672.92;;;16.67;31.57
67803;BME280;54601;51.378;-1.342;2023-01-15T02:07:50;98680.65;;;17.12;31.66
67803;BME280;54601;51.378;-1.342;2023-01-15T02:10:15;98675.72;;;16.49;31.70
67803;BME280;54601;51.378;-1.342;2023-01-15T02:12:42;98678.16;;;16.77;31.69
67803;BME280;54601;51.378;-1.342;2023-01-15T02:15:11;98678.39;;;16.84;31.64
67803;BME280;54601;51.378;-1.342;2023-01-15T02:17:37;98686.58;;;17.14;31.48
67803;BME280;54601;51.378;-1.342;2023-01-15T02:22:30;98678.48;;;17.08;31.48
67803;BME280;54601;51.378;-1.342;2023-01-15T02:24:56;98675.49;;;16.88;31.39
67803;BME280;54601;51.378;-1.342;2023-01-15T02:27:15;98669.57;;;16.93;31.49
67803;BME280;54601;51.378;-1.342;2023-01-15T02:29:44;98666.82;;;16.96;31.41
67803;BME280;54601;51.378;-1.342;2023-01-15T02:32:08;98665.36;;;16.58;31.40
67803;BME280;54601;51.378;-1.342;2023-01-15T02:34:31;98670.56;;;16.69;31.40
67803;BME280;54601;51.378;-1.342;2023-01-15T02:36:58;98667.78;;;16.90;31.39
67803;BME280;54601;51.378;-1.342;2023-01-15T02:39:20;98652.35;;;16.95;31.29
67803;BME280;54601;51.378;-1.342;2023-01-15T02:41:47;98642.13;;;16.51;31.57
67803;BME280;54601;51.378;-1.342;2023-01-15T02:44:11;98651.07;;;16.64;31.49
67803;BME280;54601;51.378;-1.342;2023-01-15T02:46:37;98650.35;;;16.68;31.39
67803;BME280;54601;51.378;-1.342;2023-01-15T02:49:03;98652.38;;;16.80;31.45
67803;BME280;54601;51.378;-1.342;2023-01-15T02:51:29;98639.10;;;16.43;31.52
67803;BME280;54601;51.378;-1.342;2023-01-15T02:53:55;98634.16;;;16.73;31.50
67803;BME280;54601;51.378;-1.342;2023-01-15T02:56:19;98634.80;;;16.32;31.44
67803;BME280;54601;51.378;-1.342;2023-01-15T02:58:43;98627.00;;;16.59;31.34
67803;BME280;54601;51.378;-1.342;2023-01-15T03:01:11;98630.40;;;16.82;31.24
67803;BME280;54601;51.378;-1.342;2023-01-15T03:03:36;98628.59;;;16.57;31.18
67803;BME280;54601;51.378;-1.342;2023-01-15T03:06:03;98624.83;;;16.53;31.58
67803;BME280;54601;51.378;-1.342;2023-01-15T03:08:23;98638.50;;;16.67;31.37
67803;BME280;54601;51.378;-1.342;2023-01-15T03:10:55;98644.25;;;16.71;31.44
67803;BME280;54601;51.378;-1.342;2023-01-15T03:13:18;98663.01;;;16.65;31.40
67803;BME280;54601;51.378;-1.342;2023-01-15T03:15:45;98669.28;;;16.65;31.37
67803;BME280;54601;51.378;-1.342;2023-01-15T03:18:07;98657.25;;;16.57;31.37
67803;BME280;54601;51.378;-1.342;2023-01-15T03:20:30;98667.89;;;16.61;31.32
67803;BME280;54601;51.378;-1.342;2023-01-15T03:22:59;98674.86;;;16.67;31.21
67803;BME280;54601;51.378;-1.342;2023-01-15T03:25:24;98671.22;;;16.63;31.21
67803;BME280;54601;51.378;-1.342;2023-01-15T03:27:46;98689.68;;;16.60;31.14
67803;BME280;54601;51.378;-1.342;2023-01-15T03:30:14;98680.65;;;16.49;31.43
67803;BME280;54601;51.378;-1.342;2023-01-15T03:32:37;98672.68;;;16.54;31.40
67803;BME280;54601;51.378;-1.342;2023-01-15T03:35:05;98671.34;;;16.48;31.44
67803;BME280;54601;51.378;-1.342;2023-01-15T03:37:28;98670.95;;;16.21;31.30
67803;BME280;54601;51.378;-1.342;2023-01-15T03:39:54;98662.60;;;16.42;31.38
67803;BME280;54601;51.378;-1.342;2023-01-15T03:42:28;98663.58;;;16.42;31.46
67803;BME280;54601;51.378;-1.342;2023-01-15T03:44:48;98652.61;;;16.75;31.30
67803;BME280;54601;51.378;-1.342;2023-01-15T03:47:20;98646.98;;;16.42;31.31
67803;BME280;54601;51.378;-1.342;2023-01-15T03:49:45;98639.13;;;16.48;31.24
67803;BME280;54601;51.378;-1.342;2023-01-15T03:52:05;98630.99;;;16.80;31.28
67803;BME280;54601;51.378;-1.342;2023-01-15T03:54:32;98621.03;;;16.44;31.40
67803;BME280;54601;51.378;-1.342;2023-01-15T03:56:53;98614.54;;;16.68;31.41
67803;BME280;54601;51.378;-1.342;2023-01-15T03:59:18;98614.10;;;16.73;31.30
67803;BME280;54601;51.378;-1.342;2023-01-15T04:01:43;98622.87;;;16.37;31.35
67803;BME280;54601;51.378;-1.342;2023-01-15T04:04:08;98618.34;;;16.41;31.45
67803;BME280;54601;51.378;-1.342;2023-01-15T04:06:35;98614.61;;;16.44;31.30
67803;BME280;54601;51.378;-1.342;2023-01-15T04:08:58;98619.71;;;16.40;31.44
67803;BME280;54601;51.378;-1.342;2023-01-15T04:11:25;98618.72;;;16.44;31.34
67803;BME280;54601;51.378;-1.342;2023-01-15T04:13:49;98612.01;;;16.22;31.32
67803;BME280;54601;51.378;-1.342;2023-01-15T04:16:15;98597.78;;;16.44;31.35
67803;BME280;54601;51.378;-1.342;2023-01-15T04:18:40;98598.53;;;16.40;31.49
67803;BME280;54601;51.378;-1.342;2023-01-15T04:21:05;98607.81;;;16.39;31.55
67803;BME280;54601;51.378;-1.342;2023-01-15T04:23:30;98606.64;;;16.45;31.50
67803;BME280;54601;51.378;-1.342;2023-01-15T04:25:56;98616.12;;;16.40;31.32
67803;BME280;54601;51.378;-1.342;2023-01-15T04:28:21;98611.68;;;16.40;31.38
67803;BME280;54601;51.378;-1.342;2023-01-15T04:30:47;98623.29;;;16.38;31.28
67803;BME280;54601;51.378;-1.342;2023-01-15T04:33:12;98598.55;;;16.69;31.29
67803;BME280;54601;51.378;-1.342;2023-01-15T04:35:38;98597.68;;;16.33;31.48
67803;BME280;54601;51.378;-1.342;2023-01-15T04:38:03;98602.78;;;16.35;31.32
67803;BME280;54601;51.378;-1.342;2023-01-15T04:40:28;98602.23;;;16.30;31.30
67803;BME280;54601;51.378;-1.342;2023-01-15T04:42:54;98605.84;;;16.31;31.38
67803;BME280;54601;51.378;-1.342;2023-01-15T04:45:19;98592.77;;;16.31;31.29
67803;BME280;54601;51.378;-1.342;2023-01-15T04:47:44;98597.53;;;16.35;31.29
67803;BME280;54601;51.378;-1.342;2023-01-15T04:50:10;98593.53;;;16.39;31.33
67803;BME280;54601;51.378;-1.342;2023-01-15T04:52:35;98594.91;;;16.34;31.30
67803;BME280;54601;51.378;-1.342;2023-01-15T04:55:01;98575.46;;;16.37;31.26
67803;BME280;54601;51.378;-1.342;2023-01-15T04:57:26;98568.06;;;16.23;31.26
67803;BME280;54601;51.378;-1.342;2023-01-15T04:59:51;98573.32;;;16.25;31.41
67803;BME280;54601;51.378;-1.342;2023-01-15T05:02:17;98567.07;;;16.73;31.19
67803;BME280;54601;51.378;-1.342;2023-01-15T05:04:42;98564.05;;;16.29;31.17
67803;BME280;54601;51.378;-1.342;2023-01-15T05:07:08;98552.91;;;16.27;31.29
67803;BME280;54601;51.378;-1.342;2023-01-15T05:09:33;98536.24;;;16.27;31.22
67803;BME280;54601;51.378;-1.342;2023-01-15T05:11:59;98555.03;;;16.07;31.13
67803;BME280;54601;51.378;-1.342;2023-01-15T05:14:24;98552.57;;;16.42;31.06
67803;BME280;54601;51.378;-1.342;2023-01-15T05:16:49;98555.70;;;16.36;31.13
67803;BME280;54601;51.378;-1.342;2023-01-15T05:19:15;98566.79;;;16.34;31.10
67803;BME280;54601;51.378;-1.342;2023-01-15T05:21:42;98568.46;;;16.62;31.15
67803;BME280;54601;51.378;-1.342;2023-01-15T05:24:07;98569.82;;;16.65;31.11
67803;BME280;54601;51.378;-1.342;2023-01-15T05:26:32;98579.66;;;16.63;31.14
67803;BME280;54601;51.378;-1.342;2023-01-15T05:28:57;98569.43;;;16.34;31.21
67803;BME280;54601;51.378;-1.342;2023-01-15T05:31:23;98551.61;;;16.58;30.94
67803;BME280;54601;51.378;-1.342;2023-01-15T05:33:48;98550.22;;;16.64;31.15
67803;BME280;54601;51.378;-1.342;2023-01-15T05:36:15;98547.03;;;16.41;31.12
67803;BME280;54601;51.378;-1.342;2023-01-15T05:38:38;98529.65;;;16.45;31.09
67803;BME280;54601;51.378;-1.342;2023-01-15T05:41:03;98522.66;;;16.44;31.19
67803;BME280;54601;51.378;-1.342;2023-01-15T05:43:28;98521.55;;;16.47;31.12
67803;BME280;54601;51.378;-1.342;2023-01-15T05:45:53;98519.75;;;16.31;31.30
67803;BME280;54601;51.378;-1.342;2023-01-15T05:48:19;98511.20;;;16.67;31.14
67803;BME280;54601;51.378;-1.342;2023-01-15T05:50:44;98513.98;;;16.51;31.08
67803;BME280;54601;51.378;-1.342;2023-01-15T05:53:09;98504.06;;;16.41;31.18
67803;BME280;54601;51.378;-1.342;2023-01-15T05:55:35;98518.17;;;16.69;31.19
67803;BME280;54601;51.378;-1.342;2023-01-15T05:58:00;98511.02;;;16.52;31.06
67803;BME280;54601;51.378;-1.342;2023-01-15T06:00:25;98498.03;;;16.47;31.13
67803;BME280;54601;51.378;-1.342;2023-01-15T06:02:51;98495.89;;;16.77;31.12
67803;BME280;54601;51.378;-1.342;2023-01-15T06:05:16;98481.04;;;16.69;31.16
67803;BME280;54601;51.378;-1.342;2023-01-15T06:07:41;98489.23;;;16.44;31.07
67803;BME280;54601;51.378;-1.342;2023-01-15T06:10:07;98464.72;;;16.49;31.06
67803;BME280;54601;51.378;-1.342;2023-01-15T06:12:32;98464.71;;;16.48;31.15
67803;BME280;54601;51.378;-1.342;2023-01-15T06:14:57;98451.02;;;16.50;31.13
67803;BME280;54601;51.378;-1.342;2023-01-15T06:17:22;98459.17;;;16.55;31.04
67803;BME280;54601;51.378;-1.342;2023-01-15T06:19:48;98463.63;;;16.44;31.24
67803;BME280;54601;51.378;-1.342;2023-01-15T06:22:13;98482.26;;;16.49;31.19
67803;BME280;54601;51.378;-1.342;2023-01-15T06:24:38;98469.15;;;16.23;31.19
67803;BME280;54601;51.378;-1.342;2023-01-15T06:27:04;98475.22;;;16.52;31.10
67803;BME280;54601;51.378;-1.342;2023-01-15T06:29:29;98470.38;;;16.79;31.11
67803;BME280;54601;51.378;-1.342;2023-01-15T06:31:54;98467.36;;;16.59;31.01
67803;BME280;54601;51.378;-1.342;2023-01-15T06:34:20;98483.61;;;16.85;31.13
67803;BME280;54601;51.378;-1.342;2023-01-15T06:36:45;98490.77;;;16.68;30.98
67803;BME280;54601;51.378;-1.342;2023-01-15T06:39:10;98485.11;;;16.64;31.03
67803;BME280;54601;51.378;-1.342;2023-01-15T06:41:36;98500.21;;;16.78;30.93
67803;BME280;54601;51.378;-1.342;2023-01-15T06:44:02;98493.30;;;16.80;30.93
67803;BME280;54601;51.378;-1.342;2023-01-15T06:46:26;98491.67;;;16.68;31.07
67803;BME280;54601;51.378;-1.342;2023-01-15T06:48:52;98490.12;;;16.51;31.09
67803;BME280;54601;51.378;-1.342;2023-01-15T06:51:17;98500.55;;;16.72;31.15
67803;BME280;54601;51.378;-1.342;2023-01-15T06:53:42;98486.87;;;16.58;30.86
67803;BME280;54601;51.378;-1.342;2023-01-15T06:56:08;98476.85;;;17.14;30.75
67803;BME280;54601;51.378;-1.342;2023-01-15T06:58:33;98479.68;;;16.37;31.13
67803;BME280;54601;51.378;-1.342;2023-01-15T07:00:58;98479.85;;;16.99;30.87
67803;BME280;54601;51.378;-1.342;2023-01-15T07:03:24;98499.62;;;16.69;30.99
67803;BME280;54601;51.378;-1.342;2023-01-15T07:05:49;98494.54;;;16.89;31.09
67803;BME280;54601;51.378;-1.342;2023-01-15T07:08:14;98502.66;;;16.91;31.15
67803;BME280;54601;51.378;-1.342;2023-01-15T07:10:39;98508.61;;;16.85;31.31
67803;BME280;54601;51.378;-1.342;2023-01-15T07:13:05;98508.86;;;16.79;31.39
67803;BME280;54601;51.378;-1.342;2023-01-15T07:15:30;98523.11;;;16.91;31.22
67803;BME280;54601;51.378;-1.342;2023-01-15T07:17:56;98529.12;;;16.82;31.41
67803;BME280;54601;51.378;-1.342;2023-01-15T07:20:21;98532.22;;;16.69;31.59
67803;BME280;54601;51.378;-1.342;2023-01-15T07:22:47;98531.06;;;16.57;31.84
67803;BME280;54601;51.378;-1.342;2023-01-15T07:25:11;98527.30;;;16.50;32.13
67803;BME280;54601;51.378;-1.342;2023-01-15T07:27:37;98530.66;;;16.51;32.20
67803;BME280;54601;51.378;-1.342;2023-01-15T07:30:03;98533.41;;;16.57;32.22
67803;BME280;54601;51.378;-1.342;2023-01-15T07:32:27;98537.86;;;16.54;32.40
67803;BME280;54601;51.378;-1.342;2023-01-15T07:34:53;98534.09;;;16.85;32.01
67803;BME280;54601;51.378;-1.342;2023-01-15T07:37:18;98534.89;;;16.75;32.10
67803;BME280;54601;51.378;-1.342;2023-01-15T07:39:43;98537.51;;;16.76;32.19
67803;BME280;54601;51.378;-1.342;2023-01-15T07:42:09;98537.57;;;16.74;32.15
67803;BME280;54601;51.378;-1.342;2023-01-15T07:44:34;98533.72;;;16.63;32.14
67803;BME280;54601;51.378;-1.342;2023-01-15T07:47:00;98539.36;;;16.90;32.02
67803;BME280;54601;51.378;-1.342;2023-01-15T07:49:25;98540.20;;;16.75;32.07
67803;BME280;54601;51.378;-1.342;2023-01-15T07:51:50;98537.84;;;16.79;32.19
67803;BME280;54601;51.378;-1.342;2023-01-15T07:54:16;98538.15;;;16.67;32.17
67803;BME280;54601;51.378;-1.342;2023-01-15T07:56:41;98539.31;;;16.94;32.21
67803;BME280;54601;51.378;-1.342;2023-01-15T07:59:06;98556.01;;;16.69;32.27
67803;BME280;54601;51.378;-1.342;2023-01-15T08:01:32;98552.52;;;16.97;32.25
67803;BME280;54601;51.378;-1.342;2023-01-15T08:03:57;98544.90;;;17.09;32.14
67803;BME280;54601;51.378;-1.342;2023-01-15T08:06:22;98552.30;;;17.08;32.16
67803;BME280;54601;51.378;-1.342;2023-01-15T08:08:48;98559.26;;;17.09;32.22
67803;BME280;54601;51.378;-1.342;2023-01-15T08:11:13;98559.02;;;16.64;32.21
67803;BME280;54601;51.378;-1.342;2023-01-15T08:13:38;98564.78;;;17.03;32.23
67803;BME280;54601;51.378;-1.342;2023-01-15T08:16:04;98565.93;;;16.91;32.16
67803;BME280;54601;51.378;-1.342;2023-01-15T08:18:29;98564.40;;;16.63;32.11
67803;BME280;54601;51.378;-1.342;2023-01-15T08:20:54;98560.63;;;16.75;31.94
67803;BME280;54601;51.378;-1.342;2023-01-15T08:23:20;98555.92;;;16.63;32.09
67803;BME280;54601;51.378;-1.342;2023-01-15T08:25:45;98555.68;;;17.21;32.06
67803;BME280;54601;51.378;-1.342;2023-01-15T08:28:10;98558.95;;;17.20;32.00
67803;BME280;54601;51.378;-1.342;2023-01-15T08:30:36;98561.58;;;16.94;32.02
67803;BME280;54601;51.378;-1.342;2023-01-15T08:33:01;98565.18;;;16.75;32.10
67803;BME280;54601;51.378;-1.342;2023-01-15T08:35:26;98558.66;;;16.81;32.09
67803;BME280;54601;51.378;-1.342;2023-01-15T08:37:52;98561.42;;;16.88;32.00
67803;BME280;54601;51.378;-1.342;2023-01-15T08:40:17;98557.98;;;16.81;32.15
67803;BME280;54601;51.378;-1.342;2023-01-15T08:42:42;98560.18;;;16.90;32.06
67803;BME280;54601;51.378;-1.342;2023-01-15T08:45:08;98558.32;;;17.18;32.01
67803;BME280;54601;51.378;-1.342;2023-01-15T08:47:33;98564.47;;;17.20;32.04
67803;BME280;54601;51.378;-1.342;2023-01-15T08:49:58;98574.83;;;17.31;32.03
67803;BME280;54601;51.378;-1.342;2023-01-15T08:52:23;98579.68;;;17.08;31.98
67803;BME280;54601;51.378;-1.342;2023-01-15T08:54:49;98586.83;;;17.28;32.06
67803;BME280;54601;51.378;-1.342;2023-01-15T08:57:14;98587.59;;;17.11;32.04
67803;BME280;54601;51.378;-1.342;2023-01-15T08:59:39;98584.53;;;17.22;32.01
67803;BME280;54601;51.378;-1.342;2023-01-15T09:02:05;98587.11;;;17.18;32.13
67803;BME280;54601;51.378;-1.342;2023-01-15T09:04:30;98585.51;;;17.44;32.10
67803;BME280;54601;51.378;-1.342;2023-01-15T09:06:55;98575.44;;;17.19;32.16
67803;BME280;54601;51.378;-1.342;2023-01-15T09:09:20;98580.38;;;17.47;32.05
67803;BME280;54601;51.378;-1.342;2023-01-15T09:11:46;98583.55;;;17.28;32.22
67803;BME280;54601;51.378;-1.342;2023-01-15T09:14:13;98578.98;;;17.04;32.29
67803;BME280;54601;51.378;-1.342;2023-01-15T09:16:37;98581.03;;;17.60;32.28
67803;BME280;54601;51.378;-1.342;2023-01-15T09:19:02;98585.20;;;17.35;32.39
67803;BME280;54601;51.378;-1.342;2023-01-15T09:21:27;98587.68;;;17.38;32.41
67803;BME280;54601;51.378;-1.342;2023-01-15T09:23:52;98587.52;;;17.63;32.46
67803;BME280;54601;51.378;-1.342;2023-01-15T09:26:27;98593.16;;;17.44;32.43
67803;BME280;54601;51.378;-1.342;2023-01-15T09:28:43;98597.49;;;17.49;32.37
67803;BME280;54601;51.378;-1.342;2023-01-15T09:31:08;98598.59;;;17.53;32.51
67803;BME280;54601;51.378;-1.342;2023-01-15T09:33:33;98600.16;;;17.47;32.60
67803;BME280;54601;51.378;-1.342;2023-01-15T09:35:58;98605.46;;;17.57;32.45
67803;BME280;54601;51.378;-1.342;2023-01-15T09:38:24;98610.14;;;17.59;32.51
67803;BME280;54601;51.378;-1.342;2023-01-15T09:40:51;98616.05;;;17.59;32.48
67803;BME280;54601;51.378;-1.342;2023-01-15T09:43:26;98620.93;;;17.66;32.62
67803;BME280;54601;51.378;-1.342;2023-01-15T09:45:46;98622.33;;;17.36;32.67
67803;BME280;54601;51.378;-1.342;2023-01-15T09:48:15;98628.75;;;17.41;32.75
67803;BME280;54601;51.378;-1.342;2023-01-15T09:50:39;98624.79;;;17.68;32.77
67803;BME280;54601;51.378;-1.342;2023-01-15T09:55:24;98617.76;;;17.75;32.83
67803;BME280;54601;51.378;-1.342;2023-01-15T09:57:49;98621.26;;;17.79;32.79
67803;BME280;54601;51.378;-1.342;2023-01-15T10:00:17;98622.14;;;17.89;32.79
67803;BME280;54601;51.378;-1.342;2023-01-15T10:02:42;98617.53;;;17.58;32.77
67803;BME280;54601;51.378;-1.342;2023-01-15T10:05:08;98624.75;;;17.92;32.51
67803;BME280;54601;51.378;-1.342;2023-01-15T10:07:31;98628.26;;;17.59;32.53
67803;BME280;54601;51.378;-1.342;2023-01-15T10:09:57;98640.15;;;17.61;32.25
67803;BME280;54601;51.378;-1.342;2023-01-15T10:12:22;98651.38;;;17.85;32.13
67803;BME280;54601;51.378;-1.342;2023-01-15T10:14:49;98657.40;;;17.72;31.98
67803;BME280;54601;51.378;-1.342;2023-01-15T10:17:18;98658.78;;;17.79;32.12
67803;BME280;54601;51.378;-1.342;2023-01-15T10:19:33;98665.78;;;17.84;32.07
67803;BME280;54601;51.378;-1.342;2023-01-15T10:22:02;98663.24;;;17.90;32.20
67803;BME280;54601;51.378;-1.342;2023-01-15T10:24:29;98663.48;;;17.90;32.16
67803;BME280;54601;51.378;-1.342;2023-01-15T10:26:53;98663.29;;;17.90;32.08
67803;BME280;54601;51.378;-1.342;2023-01-15T10:29:18;98663.20;;;17.87;32.20
67803;BME280;54601;51.378;-1.342;2023-01-15T10:31:48;98675.08;;;17.65;32.05
67803;BME280;54601;51.378;-1.342;2023-01-15T10:36:34;98678.70;;;17.60;32.13
67803;BME280;54601;51.378;-1.342;2023-01-15T10:39:00;98680.17;;;17.84;32.06
67803;BME280;54601;51.378;-1.342;2023-01-15T10:41:29;98685.82;;;17.84;32.19
67803;BME280;54601;51.378;-1.342;2023-01-15T10:43:50;98683.61;;;17.80;32.17
67803;BME280;54601;51.378;-1.342;2023-01-15T10:46:13;98676.84;;;17.77;32.17
67803;BME280;54601;51.378;-1.342;2023-01-15T10:48:40;98669.51;;;17.50;32.13
67803;BME280;54601;51.378;-1.342;2023-01-15T10:51:12;98673.82;;;17.92;31.91
67803;BME280;54601;51.378;-1.342;2023-01-15T10:53:31;98680.93;;;17.78;32.05
67803;BME280;54601;51.378;-1.342;2023-01-15T10:55:54;98679.66;;;17.94;31.93
67803;BME280;54601;51.378;-1.342;2023-01-15T10:58:24;98677.55;;;18.03;31.79
67803;BME280;54601;51.378;-1.342;2023-01-15T11:00:48;98677.47;;;18.05;31.66
67803;BME280;54601;51.378;-1.342;2023-01-15T11:03:12;98677.21;;;18.01;31.72
67803;BME280;54601;51.378;-1.342;2023-01-15T11:05:34;98680.62;;;17.97;31.88
67803;BME280;54601;51.378;-1.342;2023-01-15T11:07:58;98675.02;;;18.11;31.54
67803;BME280;54601;51.378;-1.342;2023-01-15T11:10:23;98675.71;;;17.95;31.82
67803;BME280;54601;51.378;-1.342;2023-01-15T11:12:51;98673.92;;;18.01;31.65
67803;BME280;54601;51.378;-1.342;2023-01-15T11:15:15;98675.07;;;18.02;31.63
67803;BME280;54601;51.378;-1.342;2023-01-15T11:17:42;98677.54;;;17.95;31.60
67803;BME280;54601;51.378;-1.342;2023-01-15T11:20:11;98682.00;;;18.14;31.37
67803;BME280;54601;51.378;-1.342;2023-01-15T11:22:29;98674.26;;;17.98;31.51
67803;BME280;54601;51.378;-1.342;2023-01-15T11:24:57;98669.65;;;17.69;31.49
67803;BME280;54601;51.378;-1.342;2023-01-15T11:27:22;98666.82;;;17.56;31.66
67803;BME280;54601;51.378;-1.342;2023-01-15T11:29:50;98665.76;;;17.87;31.65
67803;BME280;54601;51.378;-1.342;2023-01-15T11:32:18;98668.11;;;17.98;31.46
67803;BME280;54601;51.378;-1.342;2023-01-15T11:34:37;98670.78;;;18.06;31.23
67803;BME280;54601;51.378;-1.342;2023-01-15T11:37:02;98665.02;;;17.77;31.54
67803;BME280;54601;51.378;-1.342;2023-01-15T11:39:27;98654.38;;;17.83;31.49
67803;BME280;54601;51.378;-1.342;2023-01-15T11:41:57;98659.19;;;17.80;31.49
67803;BME280;54601;51.378;-1.342;2023-01-15T11:44:18;98655.11;;;17.98;31.49
67803;BME280;54601;51.378;-1.342;2023-01-15T11:46:45;98646.44;;;17.80;31.40
67803;BME280;54601;51.378;-1.342;2023-01-15T11:49:09;98646.71;;;17.74;31.48
67803;BME280;54601;51.378;-1.342;2023-01-15T11:51:36;98648.02;;;17.68;31.56
67803;BME280;54601;51.378;-1.342;2023-01-15T11:54:01;98648.18;;;17.72;31.46
67803;BME280;54601;51.378;-1.342;2023-01-15T11:56:24;98631.81;;;18.07;31.25
67803;BME280;54601;51.378;-1.342;2023-01-15T11:58:50;98625.22;;;18.39;31.02
67803;BME280;54601;51.378;-1.342;2023-01-15T12:03:39;98626.87;;;17.71;31.39
67803;BME280;54601;51.378;-1.342;2023-01-15T12:06:06;98633.97;;;17.82;31.06
67803;BME280;54601;51.378;-1.342;2023-01-15T12:10:59;98631.21;;;17.67;31.27
67803;BME280;54601;51.378;-1.342;2023-01-15T12:13:26;98635.07;;;17.63;31.36
67803;BME280;54601;51.378;-1.342;2023-01-15T12:15:48;98629.61;;;17.85;31.34
67803;BME280;54601;51.378;-1.342;2023-01-15T12:20:47;98625.54;;;17.74;31.13
67803;BME280;54601;51.378;-1.342;2023-01-15T12:23:16;98625.59;;;17.60;31.26
67803;BME280;54601;51.378;-1.342;2023-01-15T12:25:33;98625.11;;;17.76;31.39
67803;BME280;54601;51.378;-1.342;2023-01-15T12:27:56;98622.40;;;17.87;31.14
67803;BME280;54601;51.378;-1.342;2023-01-15T12:30:23;98618.99;;;17.70;31.02
67803;BME280;54601;51.378;-1.342;2023-01-15T12:32:45;98617.74;;;17.96;30.97
67803;BME280;54601;51.378;-1.342;2023-01-15T12:35:14;98620.61;;;17.61;31.08
67803;BME280;54601;51.378;-1.342;2023-01-15T12:37:36;98618.13;;;17.53;31.21
67803;BME280;54601;51.378;-1.342;2023-01-15T12:40:06;98617.20;;;17.52;31.12
67803;BME280;54601;51.378;-1.342;2023-01-15T12:42:24;98615.99;;;17.50;31.25
67803;BME280;54601;51.378;-1.342;2023-01-15T12:44:51;98610.22;;;17.46;31.13
67803;BME280;54601;51.378;-1.342;2023-01-15T12:47:17;98611.38;;;17.47;31.13
67803;BME280;54601;51.378;-1.342;2023-01-15T12:49:43;98608.74;;;17.57;30.97
67803;BME280;54601;51.378;-1.342;2023-01-15T12:52:06;98604.56;;;17.91;31.17
67803;BME280;54601;51.378;-1.342;2023-01-15T12:54:34;98599.92;;;18.03;30.98
67803;BME280;54601;51.378;-1.342;2023-01-15T12:56:59;98595.59;;;17.67;31.01